Time,TemperatureF,DewpointF,PressureIn,WindDirection,WindDirectionDegrees,WindSpeedMPH,WindSpeedGustMPH,Humidity,HourlyPrecipIn,Conditions,Clouds,dailyrainin,SoftwareType,DateUTC
2013-02-05 00:03:00,26.1,20.2,29.85,SSW,203,3.1,4.0,78,0.00,,,0.00,WUHU216HW,2013-02-05 06:03:00,
2013-02-05 00:08:00,26.1,20.2,29.85,SSW,203,2.5,4.0,78,0.00,,,0.00,WUHU216HW,2013-02-05 06:08:00,
2013-02-05 00:13:00,26.1,20.2,29.85,SSW,203,2.9,4.0,78,0.00,,,0.00,WUHU216HW,2013-02-05 06:13:00,
2013-02-05 00:18:00,26.1,20.2,29.85,SW,225,2.2,3.1,78,0.00,,,0.00,WUHU216HW,2013-02-05 06:18:00,
2013-02-05 00:23:00,26.1,20.2,29.86,SSW,203,1.6,2.9,78,0.00,,,0.00,WUHU216HW,2013-02-05 06:23:00,
2013-02-05 00:28:00,26.1,20.2,29.86,SSW,203,0.2,2.2,78,0.00,,,0.00,WUHU216HW,2013-02-05 06:28:00,
2013-02-05 00:33:00,26.1,20.2,29.86,SW,225,0.7,1.6,78,0.00,,,0.00,WUHU216HW,2013-02-05 06:33:00,
2013-02-05 00:38:00,26.3,20.4,29.86,SW,225,0.9,1.1,78,0.00,,,0.00,WUHU216HW,2013-02-05 06:38:00,
2013-02-05 00:43:00,26.3,20.4,29.86,SW,225,0.9,0.9,78,0.00,,,0.00,WUHU216HW,2013-02-05 06:43:00,
2013-02-05 01:00:00,26.3,20.4,29.85,SW,225,2.9,2.9,78,0.00,,,0.00,WUHU216HW,2013-02-05 07:00:00,
2013-02-05 01:05:00,26.3,20.4,29.85,SW,225,2.0,3.6,78,0.00,,,0.00,WUHU216HW,2013-02-05 07:05:00,
2013-02-05 01:10:00,26.3,20.4,29.85,SSW,203,2.2,3.6,78,0.00,,,0.00,WUHU216HW,2013-02-05 07:10:00,
2013-02-05 01:15:00,26.3,20.4,29.85,SSW,203,1.8,2.9,78,0.00,,,0.00,WUHU216HW,2013-02-05 07:15:00,
2013-02-05 01:20:00,26.3,20.4,29.84,SSW,203,1.8,2.9,78,0.00,,,0.00,WUHU216HW,2013-02-05 07:20:00,
2013-02-05 01:25:00,26.3,20.4,29.84,South,180,2.5,2.5,78,0.00,,,0.00,WUHU216HW,2013-02-05 07:25:00,
2013-02-05 01:30:00,26.3,20.4,29.84,SSW,203,1.3,2.5,78,0.00,,,0.00,WUHU216HW,2013-02-05 07:30:00,
2013-02-05 01:35:00,26.5,20.4,29.85,SSW,203,1.3,2.5,78,0.00,,,0.00,WUHU216HW,2013-02-05 07:35:00,
2013-02-05 01:40:00,26.5,20.4,29.84,SW,225,2.7,2.7,78,0.00,,,0.00,WUHU216HW,2013-02-05 07:40:00,
2013-02-05 01:45:00,26.5,20.4,29.84,SSW,203,1.1,2.7,78,0.00,,,0.00,WUHU216HW,2013-02-05 07:45:00,
2013-02-05 01:51:00,26.6,20.6,29.83,SSW,203,2.2,2.2,78,0.00,,,0.00,WUHU216HW,2013-02-05 07:51:00,
2013-02-05 01:56:00,26.6,20.6,29.84,SSW,203,2.5,2.7,78,0.00,,,0.00,WUHU216HW,2013-02-05 07:56:00,
2013-02-05 02:01:00,26.8,20.8,29.84,SW,225,3.4,3.4,78,0.00,,,0.00,WUHU216HW,2013-02-05 08:01:00,
2013-02-05 02:06:00,26.8,20.8,29.84,SW,225,1.8,3.4,78,0.00,,,0.00,WUHU216HW,2013-02-05 08:06:00,
2013-02-05 02:12:00,27.0,21.0,29.84,SSW,203,2.2,3.4,78,0.00,,,0.00,WUHU216HW,2013-02-05 08:12:00,
2013-02-05 02:17:00,27.0,21.0,29.84,SSW,203,2.5,2.5,78,0.00,,,0.00,WUHU216HW,2013-02-05 08:17:00,
2013-02-05 02:22:00,27.0,21.0,29.83,SW,225,3.4,3.4,78,0.00,,,0.00,WUHU216HW,2013-02-05 08:22:00,
2013-02-05 02:27:00,27.0,21.0,29.83,SW,225,3.8,3.8,78,0.00,,,0.00,WUHU216HW,2013-02-05 08:27:00,
2013-02-05 02:32:00,27.0,21.0,29.83,SW,225,1.1,3.8,78,0.00,,,0.00,WUHU216HW,2013-02-05 08:32:00,
2013-02-05 02:37:00,27.0,21.0,29.83,SSW,203,2.5,3.4,78,0.00,,,0.00,WUHU216HW,2013-02-05 08:37:00,
2013-02-05 02:42:00,27.0,21.0,29.83,SW,225,2.7,2.9,78,0.00,,,0.00,WUHU216HW,2013-02-05 08:42:00,
2013-02-05 02:47:00,27.0,21.0,29.83,WSW,248,0.7,2.7,78,0.00,,,0.00,WUHU216HW,2013-02-05 08:47:00,
2013-02-05 02:52:00,27.0,21.0,29.83,SW,225,1.1,2.7,78,0.00,,,0.00,WUHU216HW,2013-02-05 08:52:00,
2013-02-05 02:57:00,27.0,21.0,29.83,SW,225,0.4,2.0,78,0.00,,,0.00,WUHU216HW,2013-02-05 08:57:00,
2013-02-05 03:03:00,27.0,21.0,29.82,SSW,203,2.0,2.0,78,0.00,,,0.00,WUHU216HW,2013-02-05 09:03:00,
2013-02-05 03:08:00,27.0,21.0,29.82,SSW,203,1.1,2.0,78,0.00,,,0.00,WUHU216HW,2013-02-05 09:08:00,
2013-02-05 03:13:00,27.0,21.0,29.82,SW,225,2.5,3.4,78,0.00,,,0.00,WUHU216HW,2013-02-05 09:13:00,
2013-02-05 03:18:00,27.0,21.0,29.81,SSW,203,1.8,3.4,78,0.00,,,0.00,WUHU216HW,2013-02-05 09:18:00,
2013-02-05 03:23:00,27.0,21.0,29.81,SSW,203,1.8,2.7,78,0.00,,,0.00,WUHU216HW,2013-02-05 09:23:00,
2013-02-05 03:28:00,27.0,21.0,29.81,SSW,203,1.8,1.8,78,0.00,,,0.00,WUHU216HW,2013-02-05 09:28:00,
2013-02-05 03:33:00,27.2,21.2,29.81,SSW,203,3.8,3.8,78,0.00,,,0.00,WUHU216HW,2013-02-05 09:33:00,
2013-02-05 03:38:00,27.2,21.2,29.81,SW,225,3.6,4.9,78,0.00,,,0.00,WUHU216HW,2013-02-05 09:38:00,
2013-02-05 03:43:00,27.4,21.3,29.81,SW,225,2.5,4.9,78,0.00,,,0.00,WUHU216HW,2013-02-05 09:43:00,
2013-02-05 03:49:00,27.4,21.3,29.81,SW,225,4.7,4.7,78,0.00,,,0.00,WUHU216HW,2013-02-05 09:49:00,
2013-02-05 03:54:00,27.5,21.5,29.81,SSW,203,3.8,4.7,78,0.00,,,0.00,WUHU216HW,2013-02-05 09:54:00,
2013-02-05 03:59:00,27.7,21.7,29.81,SW,225,1.6,3.8,78,0.00,,,0.00,WUHU216HW,2013-02-05 09:59:00,
2013-02-05 04:04:00,27.7,21.7,29.81,SSW,203,3.1,3.8,78,0.00,,,0.00,WUHU216HW,2013-02-05 10:04:00,
2013-02-05 04:09:00,27.7,21.4,29.80,SW,225,4.3,4.3,77,0.00,,,0.00,WUHU216HW,2013-02-05 10:09:00,
2013-02-05 04:14:00,27.7,21.7,29.80,SSW,203,5.4,5.4,78,0.00,,,0.00,WUHU216HW,2013-02-05 10:14:00,
2013-02-05 04:19:00,27.7,21.7,29.80,SW,225,6.3,8.5,78,0.00,,,0.00,WUHU216HW,2013-02-05 10:19:00,
2013-02-05 04:24:00,27.9,21.6,29.80,SSW,203,6.7,8.5,77,0.00,,,0.00,WUHU216HW,2013-02-05 10:24:00,
2013-02-05 04:29:00,27.9,21.6,29.80,SSW,203,6.7,7.6,77,0.00,,,0.00,WUHU216HW,2013-02-05 10:29:00,
2013-02-05 04:35:00,27.9,21.6,29.80,SSW,203,6.7,6.7,77,0.00,,,0.00,WUHU216HW,2013-02-05 10:35:00,
2013-02-05 04:40:00,28.1,21.8,29.81,WSW,248,3.4,6.7,77,0.00,,,0.00,WUHU216HW,2013-02-05 10:40:00,
2013-02-05 04:45:00,28.3,22.0,29.81,SW,225,2.5,6.7,77,0.00,,,0.00,WUHU216HW,2013-02-05 10:45:00,
2013-02-05 04:50:00,28.4,22.2,29.81,SW,225,2.7,3.4,77,0.00,,,0.00,WUHU216HW,2013-02-05 10:50:00,
2013-02-05 04:55:00,28.4,22.2,29.81,SW,225,3.1,3.1,77,0.00,,,0.00,WUHU216HW,2013-02-05 10:55:00,
2013-02-05 05:00:00,28.4,22.2,29.81,SW,225,3.8,3.8,77,0.00,,,0.00,WUHU216HW,2013-02-05 11:00:00,
2013-02-05 05:05:00,28.4,22.2,29.81,SW,225,2.5,3.8,77,0.00,,,0.00,WUHU216HW,2013-02-05 11:05:00,
2013-02-05 05:10:00,28.6,22.3,29.81,WSW,248,2.2,3.8,77,0.00,,,0.00,WUHU216HW,2013-02-05 11:10:00,
2013-02-05 05:15:00,28.6,22.3,29.81,SW,225,1.8,3.8,77,0.00,,,0.00,WUHU216HW,2013-02-05 11:15:00,
2013-02-05 05:21:00,28.8,22.5,29.81,WSW,248,2.5,3.8,77,0.00,,,0.00,WUHU216HW,2013-02-05 11:21:00,
2013-02-05 05:26:00,29.0,22.7,29.81,WSW,248,1.8,2.5,77,0.00,,,0.00,WUHU216HW,2013-02-05 11:26:00,
2013-02-05 05:31:00,29.2,22.9,29.81,SW,225,1.8,2.2,77,0.00,,,0.00,WUHU216HW,2013-02-05 11:31:00,
2013-02-05 05:36:00,29.2,22.9,29.81,SW,225,1.8,2.9,77,0.00,,,0.00,WUHU216HW,2013-02-05 11:36:00,
2013-02-05 05:41:00,29.2,22.9,29.82,WSW,248,1.1,2.9,77,0.00,,,0.00,WUHU216HW,2013-02-05 11:41:00,
2013-02-05 05:46:00,29.3,23.0,29.82,WSW,248,0.9,1.8,77,0.00,,,0.00,WUHU216HW,2013-02-05 11:46:00,
2013-02-05 05:51:00,29.5,23.1,29.82,WSW,248,0.0,1.6,77,0.00,,,0.00,WUHU216HW,2013-02-05 11:51:00,
2013-02-05 05:56:00,29.3,23.0,29.83,WNW,293,0.0,0.9,77,0.00,,,0.00,WUHU216HW,2013-02-05 11:56:00,
2013-02-05 06:02:00,29.9,23.5,29.83,SW,225,0.4,0.9,77,0.00,,,0.00,WUHU216HW,2013-02-05 12:02:00,
2013-02-05 06:07:00,30.1,24.0,29.83,WSW,248,0.7,1.1,78,0.00,,,0.00,WUHU216HW,2013-02-05 12:07:00,
2013-02-05 06:12:00,30.2,24.2,29.83,SW,225,0.0,1.1,78,0.00,,,0.00,WUHU216HW,2013-02-05 12:12:00,
2013-02-05 06:17:00,30.2,24.2,29.82,SW,225,0.0,0.7,78,0.00,,,0.00,WUHU216HW,2013-02-05 12:17:00,
2013-02-05 06:22:00,30.2,24.2,29.82,WSW,248,1.1,1.1,78,0.00,,,0.00,WUHU216HW,2013-02-05 12:22:00,
2013-02-05 06:27:00,31.0,24.6,29.82,WSW,248,2.9,2.9,77,0.00,,,0.00,WUHU216HW,2013-02-05 12:27:00,
2013-02-05 06:32:00,31.1,24.8,29.83,WSW,248,1.8,2.9,77,0.00,,,0.00,WUHU216HW,2013-02-05 12:32:00,
2013-02-05 06:37:00,31.3,24.9,29.83,WSW,248,1.6,2.9,77,0.00,,,0.00,WUHU216HW,2013-02-05 12:37:00,
2013-02-05 06:42:00,31.3,24.9,29.83,WSW,248,2.5,2.9,77,0.00,,,0.00,WUHU216HW,2013-02-05 12:42:00,
2013-02-05 06:48:00,31.7,25.3,29.83,WSW,248,3.4,3.4,77,0.00,,,0.00,WUHU216HW,2013-02-05 12:48:00,
2013-02-05 06:53:00,31.9,25.5,29.83,WSW,248,1.8,3.4,77,0.00,,,0.00,WUHU216HW,2013-02-05 12:53:00,
2013-02-05 06:59:00,32.0,25.4,29.83,WSW,248,3.6,3.6,76,0.00,,,0.00,WUHU216HW,2013-02-05 12:59:00,
2013-02-05 07:05:00,32.0,25.4,29.83,WSW,248,3.6,3.6,76,0.00,,,0.00,WUHU216HW,2013-02-05 13:05:00,
2013-02-05 07:10:00,32.0,25.4,29.84,WSW,248,3.6,3.6,76,0.00,,,0.00,WUHU216HW,2013-02-05 13:10:00,
2013-02-05 07:15:00,32.4,25.7,29.84,WSW,248,3.1,3.6,76,0.00,,,0.00,WUHU216HW,2013-02-05 13:15:00,
2013-02-05 07:20:00,32.4,25.7,29.84,West,270,2.9,3.4,76,0.00,,,0.00,WUHU216HW,2013-02-05 13:20:00,
2013-02-05 07:25:00,32.8,26.0,29.84,WSW,248,3.1,3.4,76,0.00,,,0.00,WUHU216HW,2013-02-05 13:25:00,
2013-02-05 07:30:00,32.8,26.0,29.84,WSW,248,2.5,3.4,76,0.00,,,0.00,WUHU216HW,2013-02-05 13:30:00,
2013-02-05 07:35:00,32.8,26.0,29.85,WSW,248,3.1,3.1,76,0.00,,,0.00,WUHU216HW,2013-02-05 13:35:00,
2013-02-05 07:40:00,32.8,26.0,29.85,WSW,248,3.1,3.1,76,0.00,,,0.00,WUHU216HW,2013-02-05 13:40:00,
2013-02-05 07:45:00,32.8,26.0,29.85,WSW,248,3.1,3.1,76,0.00,,,0.00,WUHU216HW,2013-02-05 13:45:00,
2013-02-05 07:50:00,32.8,26.0,29.85,WSW,248,3.1,3.1,76,0.00,,,0.00,WUHU216HW,2013-02-05 13:50:00,
2013-02-05 07:55:00,33.8,26.6,29.85,West,270,4.0,4.0,75,0.00,,,0.00,WUHU216HW,2013-02-05 13:55:00,
2013-02-05 08:00:00,34.2,27.0,29.85,WSW,248,2.9,4.0,75,0.00,,,0.00,WUHU216HW,2013-02-05 14:00:00,
2013-02-05 08:05:00,34.4,26.8,29.85,West,270,3.4,3.6,74,0.00,,,0.00,WUHU216HW,2013-02-05 14:05:00,
2013-02-05 08:10:00,35.5,27.9,29.86,West,270,4.0,4.0,74,0.00,,,0.00,WUHU216HW,2013-02-05 14:10:00,
2013-02-05 08:16:00,36.4,28.5,29.86,West,270,4.7,4.7,73,0.00,,,0.00,WUHU216HW,2013-02-05 14:16:00,
2013-02-05 08:21:00,37.8,29.6,29.86,West,270,4.3,4.7,72,0.00,,,0.00,WUHU216HW,2013-02-05 14:21:00,
2013-02-05 08:26:00,38.5,30.0,29.87,West,270,4.5,4.5,71,0.00,,,0.00,WUHU216HW,2013-02-05 14:26:00,
2013-02-05 08:31:00,38.7,30.1,29.87,West,270,4.0,4.5,71,0.00,,,0.00,WUHU216HW,2013-02-05 14:31:00,
2013-02-05 08:36:00,38.9,30.2,29.87,West,270,4.0,4.0,71,0.00,,,0.00,WUHU216HW,2013-02-05 14:36:00,
2013-02-05 08:41:00,39.6,30.6,29.87,West,270,3.6,4.0,70,0.00,,,0.00,WUHU216HW,2013-02-05 14:41:00,
2013-02-05 08:46:00,41.0,30.9,29.88,West,270,4.0,4.0,67,0.00,,,0.00,WUHU216HW,2013-02-05 14:46:00,
2013-02-05 08:51:00,41.4,31.2,29.88,West,270,3.8,4.0,67,0.00,,,0.00,WUHU216HW,2013-02-05 14:51:00,
2013-02-05 08:56:00,41.9,31.8,29.89,West,270,3.6,4.0,67,0.00,,,0.00,WUHU216HW,2013-02-05 14:56:00,
2013-02-05 09:01:00,42.7,31.7,29.89,West,270,3.8,3.8,65,0.00,,,0.00,WUHU216HW,2013-02-05 15:01:00,
2013-02-05 09:07:00,42.5,31.5,29.89,West,270,4.7,4.7,65,0.00,,,0.00,WUHU216HW,2013-02-05 15:07:00,
2013-02-05 09:12:00,42.8,32.2,29.90,West,270,4.7,4.7,66,0.00,,,0.00,WUHU216HW,2013-02-05 15:12:00,
2013-02-05 09:17:00,43.6,31.8,29.90,West,270,4.7,4.7,63,0.00,,,0.00,WUHU216HW,2013-02-05 15:17:00,
2013-02-05 09:22:00,43.6,31.8,29.91,West,270,4.0,4.7,63,0.00,,,0.00,WUHU216HW,2013-02-05 15:22:00,
2013-02-05 09:27:00,43.6,32.1,29.91,West,270,4.5,4.7,64,0.00,,,0.00,WUHU216HW,2013-02-05 15:27:00,
2013-02-05 09:32:00,44.5,32.7,29.91,West,270,5.4,5.4,63,0.00,,,0.00,WUHU216HW,2013-02-05 15:32:00,
2013-02-05 09:37:00,44.8,32.9,29.91,West,270,4.7,5.4,63,0.00,,,0.00,WUHU216HW,2013-02-05 15:37:00,
2013-02-05 09:42:00,45.0,33.1,29.91,West,270,3.4,5.4,63,0.00,,,0.00,WUHU216HW,2013-02-05 15:42:00,
2013-02-05 09:47:00,45.5,33.3,29.91,West,270,2.5,4.7,62,0.00,,,0.00,WUHU216HW,2013-02-05 15:47:00,
2013-02-05 09:52:00,46.1,33.4,29.91,West,270,3.6,4.5,61,0.00,,,0.00,WUHU216HW,2013-02-05 15:52:00,
2013-02-05 09:57:00,46.3,33.1,29.92,West,270,3.4,3.6,60,0.00,,,0.00,WUHU216HW,2013-02-05 15:57:00,
2013-02-05 10:02:00,46.8,33.7,29.92,West,270,2.5,3.6,60,0.00,,,0.00,WUHU216HW,2013-02-05 16:02:00,
2013-02-05 10:08:00,47.3,34.2,29.92,WNW,293,2.0,3.1,60,0.00,,,0.00,WUHU216HW,2013-02-05 16:08:00,
2013-02-05 10:13:00,47.9,34.3,29.93,WNW,293,2.5,2.5,59,0.00,,,0.00,WUHU216HW,2013-02-05 16:13:00,
2013-02-05 10:18:00,48.2,34.7,29.93,WNW,293,1.8,3.1,59,0.00,,,0.00,WUHU216HW,2013-02-05 16:18:00,
2013-02-05 10:23:00,48.2,34.7,29.93,WNW,293,1.8,3.1,59,0.00,,,0.00,WUHU216HW,2013-02-05 16:23:00,
2013-02-05 10:28:00,48.2,34.7,29.93,WNW,293,1.8,1.8,59,0.00,,,0.00,WUHU216HW,2013-02-05 16:28:00,
2013-02-05 10:50:00,49.0,33.9,29.95,NW,315,2.5,2.5,56,0.00,,,0.00,WUHU216HW,2013-02-05 16:50:00,
2013-02-05 10:55:00,49.0,33.9,29.95,NW,315,2.5,2.5,56,0.00,,,0.00,WUHU216HW,2013-02-05 16:55:00,
2013-02-05 11:00:00,49.3,34.2,29.95,WNW,293,2.0,2.0,56,0.00,,,0.00,WUHU216HW,2013-02-05 17:00:00,
2013-02-05 11:05:00,49.7,34.6,29.95,NW,315,2.5,2.5,56,0.00,,,0.00,WUHU216HW,2013-02-05 17:05:00,
2013-02-05 11:10:00,49.7,34.1,29.96,WNW,293,2.5,3.4,55,0.00,,,0.00,WUHU216HW,2013-02-05 17:10:00,
2013-02-05 11:15:00,49.9,35.2,29.96,WNW,293,3.1,3.4,57,0.00,,,0.00,WUHU216HW,2013-02-05 17:15:00,
2013-02-05 11:20:00,50.2,34.7,29.96,NW,315,1.8,3.1,55,0.00,,,0.00,WUHU216HW,2013-02-05 17:20:00,
2013-02-05 11:25:00,49.9,34.3,29.96,WNW,293,2.0,3.1,55,0.00,,,0.00,WUHU216HW,2013-02-05 17:25:00,
2013-02-05 11:30:00,49.3,34.8,29.96,NW,315,1.8,2.5,57,0.00,,,0.00,WUHU216HW,2013-02-05 17:30:00,
2013-02-05 11:35:00,48.8,34.7,29.96,WNW,293,1.8,2.5,58,0.00,,,0.00,WUHU216HW,2013-02-05 17:35:00,
2013-02-05 11:40:00,48.6,34.5,29.96,NW,315,2.2,2.2,58,0.00,,,0.00,WUHU216HW,2013-02-05 17:40:00,
2013-02-05 11:46:00,48.6,34.5,29.96,WNW,293,2.5,2.5,58,0.00,,,0.00,WUHU216HW,2013-02-05 17:46:00,
2013-02-05 11:51:00,48.6,34.5,29.96,WNW,293,2.9,2.9,58,0.00,,,0.00,WUHU216HW,2013-02-05 17:51:00,
2013-02-05 11:56:00,48.8,33.8,29.95,NNW,338,1.8,3.4,56,0.00,,,0.00,WUHU216HW,2013-02-05 17:56:00,
2013-02-05 12:01:00,49.0,34.4,29.96,WNW,293,1.3,3.4,57,0.00,,,0.00,WUHU216HW,2013-02-05 18:01:00,
2013-02-05 12:06:00,49.3,35.2,29.96,WNW,293,2.5,2.5,58,0.00,,,0.00,WUHU216HW,2013-02-05 18:06:00,
2013-02-05 12:11:00,49.5,33.9,29.96,WNW,293,2.7,2.9,55,0.00,,,0.00,WUHU216HW,2013-02-05 18:11:00,
2013-02-05 12:16:00,49.5,33.5,29.96,WNW,293,2.5,2.9,54,0.00,,,0.00,WUHU216HW,2013-02-05 18:16:00,
2013-02-05 12:22:00,49.7,34.6,29.96,NW,315,2.0,2.7,56,0.00,,,0.00,WUHU216HW,2013-02-05 18:22:00,
2013-02-05 12:27:00,49.9,33.8,29.96,NNW,338,2.5,2.5,54,0.00,,,0.00,WUHU216HW,2013-02-05 18:27:00,
2013-02-05 12:32:00,49.9,31.5,29.95,WNW,293,3.4,3.4,49,0.00,,,0.00,WUHU216HW,2013-02-05 18:32:00,
2013-02-05 12:37:00,49.7,30.8,29.95,WNW,293,3.6,3.6,48,0.00,,,0.00,WUHU216HW,2013-02-05 18:37:00,
2013-02-05 12:42:00,49.7,31.3,29.96,WNW,293,2.9,3.6,49,0.00,,,0.00,WUHU216HW,2013-02-05 18:42:00,
2013-02-05 12:47:00,49.7,31.9,29.96,WNW,293,1.3,3.6,50,0.00,,,0.00,WUHU216HW,2013-02-05 18:47:00,
2013-02-05 12:52:00,49.7,31.9,29.96,WNW,293,3.4,3.4,50,0.00,,,0.00,WUHU216HW,2013-02-05 18:52:00,
2013-02-05 12:57:00,49.7,31.9,29.96,WNW,293,2.5,3.6,50,0.00,,,0.00,WUHU216HW,2013-02-05 18:57:00,
2013-02-05 13:03:00,49.9,32.0,29.96,WNW,293,2.7,3.6,50,0.00,,,0.00,WUHU216HW,2013-02-05 19:03:00,
2013-02-05 13:08:00,50.0,32.7,29.96,NW,315,1.6,2.7,51,0.00,,,0.00,WUHU216HW,2013-02-05 19:08:00,
2013-02-05 13:13:00,50.4,33.0,29.96,WNW,293,1.6,2.7,51,0.00,,,0.00,WUHU216HW,2013-02-05 19:13:00,
2013-02-05 13:18:00,50.4,32.6,29.96,WNW,293,3.6,3.6,50,0.00,,,0.00,WUHU216HW,2013-02-05 19:18:00,
2013-02-05 13:23:00,50.2,31.2,29.96,NW,315,3.1,3.6,48,0.00,,,0.00,WUHU216HW,2013-02-05 19:23:00,
2013-02-05 13:28:00,50.4,32.0,29.96,WNW,293,3.8,3.8,49,0.00,,,0.00,WUHU216HW,2013-02-05 19:28:00,
2013-02-05 13:33:00,50.4,32.0,29.96,WNW,293,1.6,3.8,49,0.00,,,0.00,WUHU216HW,2013-02-05 19:33:00,
2013-02-05 13:38:00,50.8,32.3,29.96,WNW,293,1.6,3.8,49,0.00,,,0.00,WUHU216HW,2013-02-05 19:38:00,
2013-02-05 13:43:00,50.8,32.3,29.96,WNW,293,2.5,2.5,49,0.00,,,0.00,WUHU216HW,2013-02-05 19:43:00,
2013-02-05 13:48:00,50.9,32.5,29.96,WNW,293,2.2,2.5,49,0.00,,,0.00,WUHU216HW,2013-02-05 19:48:00,
2013-02-05 13:53:00,51.3,31.7,29.96,NW,315,2.0,2.5,47,0.00,,,0.00,WUHU216HW,2013-02-05 19:53:00,
2013-02-05 13:58:00,50.9,30.2,29.96,NW,315,3.8,3.8,45,0.00,,,0.00,WUHU216HW,2013-02-05 19:58:00,
2013-02-05 14:03:00,50.8,30.6,29.96,WNW,293,3.1,3.8,46,0.00,,,0.00,WUHU216HW,2013-02-05 20:03:00,
2013-02-05 14:08:00,51.1,31.5,29.96,NW,315,2.5,3.8,47,0.00,,,0.00,WUHU216HW,2013-02-05 20:08:00,
2013-02-05 14:13:00,51.3,31.2,29.96,WNW,293,3.1,3.1,46,0.00,,,0.00,WUHU216HW,2013-02-05 20:13:00,
2013-02-05 14:18:00,51.1,31.0,29.96,NW,315,3.4,3.4,46,0.00,,,0.00,WUHU216HW,2013-02-05 20:18:00,
2013-02-05 14:23:00,51.1,30.4,29.95,WNW,293,2.0,3.4,45,0.00,,,0.00,WUHU216HW,2013-02-05 20:23:00,
2013-02-05 14:28:00,50.9,30.8,29.95,North,0,2.0,3.4,46,0.00,,,0.00,WUHU216HW,2013-02-05 20:28:00,
2013-02-05 14:33:00,50.8,30.1,29.96,WNW,293,2.7,2.9,45,0.00,,,0.00,WUHU216HW,2013-02-05 20:33:00,
2013-02-05 14:38:00,50.8,29.5,29.96,WNW,293,2.7,2.9,44,0.00,,,0.00,WUHU216HW,2013-02-05 20:38:00,
2013-02-05 14:43:00,50.8,31.2,29.96,WNW,293,0.7,2.7,47,0.00,,,0.00,WUHU216HW,2013-02-05 20:43:00,
2013-02-05 14:48:00,50.8,30.1,29.96,NW,315,2.2,2.7,45,0.00,,,0.00,WUHU216HW,2013-02-05 20:48:00,
2013-02-05 14:54:00,50.8,30.1,29.96,NW,315,2.2,2.2,45,0.00,,,0.00,WUHU216HW,2013-02-05 20:54:00,
2013-02-05 14:59:00,50.8,30.1,29.96,WNW,293,2.9,2.9,45,0.00,,,0.00,WUHU216HW,2013-02-05 20:59:00,
2013-02-05 15:04:00,50.8,30.6,29.96,NW,315,0.4,3.1,46,0.00,,,0.00,WUHU216HW,2013-02-05 21:04:00,
2013-02-05 15:09:00,50.9,30.8,29.96,WNW,293,1.1,3.1,46,0.00,,,0.00,WUHU216HW,2013-02-05 21:09:00,
2013-02-05 15:14:00,50.9,30.8,29.96,WNW,293,1.1,1.3,46,0.00,,,0.00,WUHU216HW,2013-02-05 21:14:00,
2013-02-05 15:19:00,50.9,30.8,29.96,WNW,293,1.1,1.1,46,0.00,,,0.00,WUHU216HW,2013-02-05 21:19:00,
2013-02-05 15:41:00,50.9,30.8,29.97,WNW,293,1.3,1.3,46,0.00,,,0.00,WUHU216HW,2013-02-05 21:41:00,
2013-02-05 15:46:00,50.9,30.8,29.97,WNW,293,1.3,1.3,46,0.00,,,0.00,WUHU216HW,2013-02-05 21:46:00,
2013-02-05 16:00:00,50.8,30.1,29.97,NW,315,1.8,1.8,45,0.00,,,0.00,WUHU216HW,2013-02-05 22:00:00,
2013-02-05 16:05:00,50.4,30.3,29.97,NW,315,0.4,1.8,46,0.00,,,0.00,WUHU216HW,2013-02-05 22:05:00,
2013-02-05 16:10:00,50.4,30.9,29.97,NNW,338,0.4,1.3,47,0.00,,,0.00,WUHU216HW,2013-02-05 22:10:00,
2013-02-05 16:15:00,50.2,30.7,29.97,NW,315,0.4,1.3,47,0.00,,,0.00,WUHU216HW,2013-02-05 22:15:00,
2013-02-05 16:20:00,50.0,30.5,29.97,NW,315,1.3,1.3,47,0.00,,,0.00,WUHU216HW,2013-02-05 22:20:00,
2013-02-05 16:25:00,50.0,31.2,29.97,NW,315,0.4,1.3,48,0.00,,,0.00,WUHU216HW,2013-02-05 22:25:00,
2013-02-05 16:30:00,49.9,30.3,29.97,NW,315,0.2,1.3,47,0.00,,,0.00,WUHU216HW,2013-02-05 22:30:00,
2013-02-05 16:35:00,49.9,31.5,29.97,NW,315,0.4,0.4,49,0.00,,,0.00,WUHU216HW,2013-02-05 22:35:00,
2013-02-05 16:40:00,49.5,31.2,29.97,North,0,0.0,0.4,49,0.00,,,0.00,WUHU216HW,2013-02-05 22:40:00,
2013-02-05 16:45:00,49.0,31.1,29.97,North,0,0.0,0.4,50,0.00,,,0.00,WUHU216HW,2013-02-05 22:45:00,
2013-02-05 16:50:00,48.6,30.8,29.97,North,0,0.4,0.4,50,0.00,,,0.00,WUHU216HW,2013-02-05 22:50:00,
2013-02-05 16:55:00,48.6,30.3,29.97,WNW,293,1.3,1.3,49,0.00,,,0.00,WUHU216HW,2013-02-05 22:55:00,
2013-02-05 17:00:00,48.6,29.2,29.97,WNW,293,1.1,1.3,47,0.00,,,0.00,WUHU216HW,2013-02-05 23:00:00,
2013-02-05 17:05:00,48.2,29.3,29.97,WNW,293,0.4,1.1,48,0.00,,,0.00,WUHU216HW,2013-02-05 23:05:00,
2013-02-05 17:10:00,47.9,29.5,29.97,WNW,293,0.4,0.9,49,0.00,,,0.00,WUHU216HW,2013-02-05 23:10:00,
2013-02-05 17:15:00,47.2,29.4,29.98,WNW,293,0.2,0.4,50,0.00,,,0.00,WUHU216HW,2013-02-05 23:15:00,
2013-02-05 17:21:00,46.8,29.6,29.97,WNW,293,0.4,0.4,51,0.00,,,0.00,WUHU216HW,2013-02-05 23:21:00,
2013-02-05 17:26:00,46.3,29.1,29.98,WNW,293,0.4,0.4,51,0.00,,,0.00,WUHU216HW,2013-02-05 23:26:00,
2013-02-05 17:31:00,45.4,28.7,29.97,WNW,293,0.0,0.4,52,0.00,,,0.00,WUHU216HW,2013-02-05 23:31:00,
2013-02-05 17:36:00,44.1,28.0,29.98,WNW,293,0.0,0.0,53,0.00,,,0.00,WUHU216HW,2013-02-05 23:36:00,
2013-02-05 17:41:00,43.7,27.7,29.98,WNW,293,0.0,0.0,53,0.00,,,0.00,WUHU216HW,2013-02-05 23:41:00,
2013-02-05 17:46:00,43.6,27.6,29.98,WNW,293,0.0,0.0,53,0.00,,,0.00,WUHU216HW,2013-02-05 23:46:00,
2013-02-05 17:51:00,43.6,27.6,29.98,WNW,293,0.0,0.0,53,0.00,,,0.00,WUHU216HW,2013-02-05 23:51:00,
2013-02-05 17:56:00,43.6,27.6,29.98,WNW,293,0.0,0.0,53,0.00,,,0.00,WUHU216HW,2013-02-05 23:56:00,
2013-02-05 18:01:00,43.4,27.4,29.98,WNW,293,0.0,0.0,53,0.00,,,0.00,WUHU216HW,2013-02-06 00:01:00,
2013-02-05 18:06:00,42.5,26.9,29.98,WNW,293,0.0,0.0,54,0.00,,,0.00,WUHU216HW,2013-02-06 00:06:00,
2013-02-05 18:11:00,41.9,26.5,29.98,WNW,293,0.0,0.0,54,0.00,,,0.00,WUHU216HW,2013-02-06 00:11:00,
2013-02-05 18:16:00,41.2,26.2,29.99,WNW,293,0.0,0.0,55,0.00,,,0.00,WUHU216HW,2013-02-06 00:16:00,
2013-02-05 18:21:00,40.9,27.6,29.99,WNW,293,0.0,0.0,59,0.00,,,0.00,WUHU216HW,2013-02-06 00:21:00,
2013-02-05 18:26:00,39.2,26.0,29.99,East,90,0.0,0.2,59,0.00,,,0.00,WUHU216HW,2013-02-06 00:26:00,
2013-02-05 18:31:00,38.9,25.8,29.99,East,90,0.0,0.2,59,0.00,,,0.00,WUHU216HW,2013-02-06 00:31:00,
2013-02-05 18:36:00,38.5,25.8,29.99,East,90,0.0,0.0,60,0.00,,,0.00,WUHU216HW,2013-02-06 00:36:00,
2013-02-05 18:41:00,38.0,26.1,30.00,East,90,0.0,0.0,62,0.00,,,0.00,WUHU216HW,2013-02-06 00:41:00,
2013-02-05 18:46:00,38.2,25.8,29.99,East,90,0.0,0.0,61,0.00,,,0.00,WUHU216HW,2013-02-06 00:46:00,
2013-02-05 18:52:00,38.5,26.2,29.99,East,90,0.0,0.0,61,0.00,,,0.00,WUHU216HW,2013-02-06 00:52:00,
2013-02-05 18:57:00,38.5,26.2,30.00,East,90,0.0,0.0,61,0.00,,,0.00,WUHU216HW,2013-02-06 00:57:00,
2013-02-05 19:02:00,38.5,26.2,30.00,East,90,0.0,0.0,61,0.00,,,0.00,WUHU216HW,2013-02-06 01:02:00,
2013-02-05 19:07:00,38.3,26.0,30.00,East,90,0.0,0.0,61,0.00,,,0.00,WUHU216HW,2013-02-06 01:07:00,
2013-02-05 19:12:00,38.2,25.8,30.00,East,90,0.0,0.0,61,0.00,,,0.00,WUHU216HW,2013-02-06 01:12:00,
2013-02-05 19:17:00,37.8,26.3,30.00,East,90,0.0,0.0,63,0.00,,,0.00,WUHU216HW,2013-02-06 01:17:00,
2013-02-05 19:22:00,37.6,26.1,30.00,East,90,0.0,0.0,63,0.00,,,0.00,WUHU216HW,2013-02-06 01:22:00,
2013-02-05 19:27:00,36.4,25.4,30.00,East,90,0.0,0.0,64,0.00,,,0.00,WUHU216HW,2013-02-06 01:27:00,
2013-02-05 19:32:00,35.6,24.7,30.00,East,90,0.0,0.0,64,0.00,,,0.00,WUHU216HW,2013-02-06 01:32:00,
2013-02-05 19:38:00,35.1,24.1,30.01,East,90,0.0,0.0,64,0.00,,,0.00,WUHU216HW,2013-02-06 01:38:00,
2013-02-05 19:43:00,34.6,23.9,30.01,East,90,0.0,0.0,65,0.00,,,0.00,WUHU216HW,2013-02-06 01:43:00,
2013-02-05 19:48:00,34.6,23.9,30.01,East,90,0.0,0.0,65,0.00,,,0.00,WUHU216HW,2013-02-06 01:48:00,
2013-02-05 19:53:00,34.4,24.1,30.01,NNE,23,0.4,0.4,66,0.00,,,0.00,WUHU216HW,2013-02-06 01:53:00,
2013-02-05 19:59:00,34.6,24.7,30.01,NNE,23,0.0,0.4,67,0.00,,,0.00,WUHU216HW,2013-02-06 01:59:00,
2013-02-05 20:04:00,34.6,24.3,30.01,NNE,23,0.0,0.0,66,0.00,,,0.00,WUHU216HW,2013-02-06 02:04:00,
2013-02-05 20:09:00,34.6,24.3,30.01,NNE,23,0.0,0.0,66,0.00,,,0.00,WUHU216HW,2013-02-06 02:09:00,
2013-02-05 20:14:00,34.6,24.3,30.01,NNE,23,0.0,0.0,66,0.00,,,0.00,WUHU216HW,2013-02-06 02:14:00,
2013-02-05 20:37:00,33.8,23.9,30.02,NNE,23,0.0,0.0,67,0.00,,,0.00,WUHU216HW,2013-02-06 02:37:00,
2013-02-05 20:42:00,33.7,23.8,30.02,NNE,23,0.0,0.0,67,0.00,,,0.00,WUHU216HW,2013-02-06 02:42:00,
2013-02-05 20:47:00,33.5,24.3,30.01,NE,45,0.4,0.4,69,0.00,,,0.00,WUHU216HW,2013-02-06 02:47:00,
2013-02-05 20:52:00,33.5,24.3,30.01,NE,45,0.2,0.4,69,0.00,,,0.00,WUHU216HW,2013-02-06 02:52:00,
2013-02-05 20:57:00,33.5,24.3,30.01,NE,45,0.0,0.4,69,0.00,,,0.00,WUHU216HW,2013-02-06 02:57:00,
2013-02-05 21:02:00,33.3,24.6,30.02,NNE,23,0.4,0.4,70,0.00,,,0.00,WUHU216HW,2013-02-06 03:02:00,
2013-02-05 21:07:00,32.9,23.9,30.02,NNE,23,0.0,0.4,69,0.00,,,0.00,WUHU216HW,2013-02-06 03:07:00,
2013-02-05 21:12:00,32.6,23.9,30.02,SSE,158,0.0,0.4,70,0.00,,,0.00,WUHU216HW,2013-02-06 03:12:00,
2013-02-05 21:17:00,32.0,23.0,30.02,SSE,158,0.0,0.4,69,0.00,,,0.00,WUHU216HW,2013-02-06 03:17:00,
2013-02-05 21:23:00,31.3,22.3,30.02,SSE,158,0.0,0.0,69,0.00,,,0.00,WUHU216HW,2013-02-06 03:23:00,
2013-02-05 21:28:00,31.1,22.5,30.02,SSE,158,0.0,0.0,70,0.00,,,0.00,WUHU216HW,2013-02-06 03:28:00,
2013-02-05 21:33:00,31.0,22.3,30.02,SSE,158,0.0,0.0,70,0.00,,,0.00,WUHU216HW,2013-02-06 03:33:00,
2013-02-05 21:38:00,31.0,22.3,30.01,NNE,23,2.5,2.5,70,0.00,,,0.00,WUHU216HW,2013-02-06 03:38:00,
2013-02-05 21:43:00,32.2,24.2,30.02,NNE,23,0.4,2.5,72,0.00,,,0.00,WUHU216HW,2013-02-06 03:43:00,
2013-02-05 21:48:00,32.8,24.7,30.02,ENE,68,0.9,1.1,72,0.00,,,0.00,WUHU216HW,2013-02-06 03:48:00,
2013-02-05 21:53:00,33.1,24.7,30.02,NE,45,0.4,0.9,71,0.00,,,0.00,WUHU216HW,2013-02-06 03:53:00,
2013-02-05 21:58:00,33.1,24.7,30.02,NE,45,0.0,0.9,71,0.00,,,0.00,WUHU216HW,2013-02-06 03:58:00,
2013-02-05 22:03:00,32.8,24.4,30.02,SSW,203,0.2,0.9,71,0.00,,,0.00,WUHU216HW,2013-02-06 04:03:00,
2013-02-05 22:08:00,32.0,23.8,30.02,SSW,203,0.0,0.9,71,0.00,,,0.00,WUHU216HW,2013-02-06 04:08:00,
2013-02-05 22:13:00,31.9,23.6,30.02,SSW,203,0.0,0.0,71,0.00,,,0.00,WUHU216HW,2013-02-06 04:13:00,
2013-02-05 22:19:00,32.0,24.0,30.02,SSW,203,0.0,0.0,72,0.00,,,0.00,WUHU216HW,2013-02-06 04:19:00,
2013-02-05 22:24:00,32.6,24.2,30.03,East,90,0.0,0.0,71,0.00,,,0.00,WUHU216HW,2013-02-06 04:24:00,
2013-02-05 22:29:00,32.6,24.2,30.02,East,90,0.0,0.0,71,0.00,,,0.00,WUHU216HW,2013-02-06 04:29:00,
2013-02-05 22:34:00,32.6,24.2,30.03,ESE,113,0.2,0.2,71,0.00,,,0.00,WUHU216HW,2013-02-06 04:34:00,
2013-02-05 22:39:00,32.4,24.4,30.03,SSW,203,0.7,1.1,72,0.00,,,0.00,WUHU216HW,2013-02-06 04:39:00,
2013-02-05 22:44:00,32.4,24.4,30.03,SSW,203,0.2,1.1,72,0.00,,,0.00,WUHU216HW,2013-02-06 04:44:00,
2013-02-05 22:49:00,32.2,24.2,30.03,SSW,203,0.2,0.7,72,0.00,,,0.00,WUHU216HW,2013-02-06 04:49:00,
2013-02-05 22:54:00,32.4,24.4,30.03,SSW,203,0.0,0.4,72,0.00,,,0.00,WUHU216HW,2013-02-06 04:54:00,
2013-02-05 23:00:00,32.6,24.6,30.03,ESE,113,0.4,0.4,72,0.00,,,0.00,WUHU216HW,2013-02-06 05:00:00,
2013-02-05 23:01:00,32.6,24.6,30.02,ESE,113,0.4,0.4,72,0.00,,,0.00,WUHU216HW,2013-02-06 05:01:00,
2013-02-05 23:06:00,32.8,24.7,30.03,ESE,113,0.7,0.7,72,0.00,,,0.00,WUHU216HW,2013-02-06 05:06:00,
2013-02-05 23:11:00,32.9,24.8,30.03,ESE,113,0.0,0.7,72,0.00,,,0.00,WUHU216HW,2013-02-06 05:11:00,
2013-02-05 23:16:00,32.9,24.8,30.03,ESE,113,0.0,0.7,72,0.00,,,0.00,WUHU216HW,2013-02-06 05:16:00,
2013-02-05 23:21:00,32.8,24.7,30.03,South,180,3.1,3.1,72,0.00,,,0.00,WUHU216HW,2013-02-06 05:21:00,
2013-02-05 23:26:00,33.1,25.4,30.03,South,180,0.2,3.6,73,0.00,,,0.00,WUHU216HW,2013-02-06 05:26:00,
2013-02-05 23:31:00,33.3,25.5,30.03,SSW,203,1.8,3.6,73,0.00,,,0.00,WUHU216HW,2013-02-06 05:31:00,
2013-02-05 23:37:00,33.5,25.7,30.03,South,180,1.1,1.8,73,0.00,,,0.00,WUHU216HW,2013-02-06 05:37:00,
2013-02-05 23:42:00,33.5,25.4,30.03,South,180,0.2,2.0,72,0.00,,,0.00,WUHU216HW,2013-02-06 05:42:00,
2013-02-05 23:47:00,33.5,25.4,30.03,South,180,0.0,2.0,72,0.00,,,0.00,WUHU216HW,2013-02-06 05:47:00,
2013-02-05 23:52:00,32.9,24.8,30.03,South,180,0.2,0.2,72,0.00,,,0.00,WUHU216HW,2013-02-06 05:52:00,
2013-02-05 23:57:00,32.6,24.6,30.03,SSW,203,0.0,0.2,72,0.00,,,0.00,WUHU216HW,2013-02-06 05:57:00,